createdAt,value
2018-05-18T00:02:01.449Z,91.00
2018-05-18T00:04:29.742Z,91.30
2018-05-18T00:06:58.026Z,91.00
2018-05-18T00:09:25.570Z,91.00
2018-05-18T00:11:53.861Z,90.80
2018-05-18T00:14:22.134Z,90.50
2018-05-18T00:16:50.444Z,90.80
2018-05-18T00:19:18.023Z,90.40
2018-05-18T00:21:45.529Z,90.40
2018-05-18T00:24:13.057Z,90.50
2018-05-18T00:26:40.570Z,90.40
2018-05-18T00:29:08.858Z,90.60
2018-05-18T00:31:37.167Z,90.70
2018-05-18T00:34:04.678Z,90.70
2018-05-18T00:36:32.953Z,90.40
2018-05-18T00:39:00.489Z,90.50
2018-05-18T00:41:28.018Z,90.30
2018-05-18T00:43:56.293Z,90.40
2018-05-18T00:46:24.601Z,90.60
2018-05-18T00:48:52.126Z,90.50
2018-05-18T00:51:19.645Z,90.70
2018-05-18T00:53:47.179Z,90.60
2018-05-18T00:56:15.449Z,90.40
2018-05-18T00:58:43.730Z,90.40
2018-05-18T01:01:12.129Z,90.60
2018-05-18T01:03:39.653Z,90.60
2018-05-18T01:06:08.686Z,90.50
2018-05-18T01:08:37.001Z,90.60
2018-05-18T01:11:04.517Z,90.60
2018-05-18T01:13:33.033Z,90.80
2018-05-18T01:16:00.565Z,90.40
2018-05-18T01:18:28.841Z,90.40
2018-05-18T01:23:31.174Z,90.20
2018-05-18T01:25:58.688Z,90.20
2018-05-18T01:28:26.218Z,90.20
2018-05-18T01:30:53.745Z,90.20
2018-05-18T01:33:22.069Z,90.20
2018-05-18T01:35:49.593Z,90.20
2018-05-18T01:38:17.888Z,90.60
2018-05-18T01:40:45.398Z,90.60
2018-05-18T01:43:13.025Z,90.90
2018-05-18T01:45:40.563Z,90.60
2018-05-18T01:48:08.838Z,91.00
2018-05-18T01:50:37.109Z,90.70
2018-05-18T01:53:05.426Z,90.90
2018-05-18T01:55:32.945Z,90.80
2018-05-18T01:58:01.222Z,90.80
2018-05-18T02:00:28.749Z,90.80
2018-05-18T02:02:56.267Z,91.00
2018-05-18T02:05:24.579Z,91.00
2018-05-18T02:07:52.113Z,91.00
2018-05-18T02:10:20.404Z,91.30
2018-05-18T02:12:48.680Z,91.30
2018-05-18T02:15:16.993Z,91.20
2018-05-18T02:17:44.514Z,91.10
2018-05-18T02:20:12.045Z,91.00
2018-05-18T02:22:39.585Z,90.90
2018-05-18T02:25:07.957Z,91.00
2018-05-18T02:27:35.482Z,90.80
2018-05-18T02:30:03.050Z,91.30
2018-05-18T02:32:31.374Z,91.30
2018-05-18T02:34:58.885Z,91.30
2018-05-18T02:37:26.426Z,91.30
2018-05-18T02:39:53.978Z,91.20
2018-05-18T02:42:21.486Z,91.10
2018-05-18T02:44:50.543Z,91.40
2018-05-18T02:47:18.062Z,91.40
2018-05-18T02:49:46.343Z,91.60
2018-05-18T02:52:14.701Z,91.50
2018-05-18T02:54:42.186Z,91.40
2018-05-18T02:57:10.487Z,91.30
2018-05-18T02:59:38.797Z,91.20
2018-05-18T03:02:06.325Z,91.20
2018-05-18T03:04:34.623Z,91.20
2018-05-18T03:07:02.165Z,91.20
2018-05-18T03:09:30.441Z,91.10
2018-05-18T03:11:57.965Z,91.30
2018-05-18T03:14:25.509Z,91.70
2018-05-18T03:16:53.094Z,91.20
2018-05-18T03:19:20.629Z,91.40
2018-05-18T03:21:48.182Z,91.20
2018-05-18T03:24:16.463Z,91.20
2018-05-18T03:26:44.814Z,91.50
2018-05-18T03:29:12.343Z,91.50
2018-05-18T03:31:39.853Z,91.30
2018-05-18T03:34:07.379Z,91.40
2018-05-18T03:36:34.914Z,91.40
2018-05-18T03:39:02.425Z,91.40
2018-05-18T03:41:29.933Z,91.20
2018-05-18T03:43:58.238Z,91.50
2018-05-18T03:46:25.769Z,91.40
2018-05-18T03:48:54.046Z,91.20
2018-05-18T03:51:22.341Z,91.40
2018-05-18T03:53:50.636Z,91.40
2018-05-18T03:56:18.162Z,91.40
2018-05-18T03:58:46.461Z,91.40
2018-05-18T04:01:26.588Z,91.30
2018-05-18T04:04:06.182Z,91.30
2018-05-18T04:06:54.503Z,91.40
2018-05-18T04:09:22.033Z,91.50
2018-05-18T04:11:51.122Z,91.20
2018-05-18T04:14:18.639Z,91.20
2018-05-18T04:16:46.206Z,91.20
2018-05-18T04:19:14.498Z,91.10
2018-05-18T04:21:42.018Z,91.10
2018-05-18T04:24:10.336Z,91.20
2018-05-18T04:26:37.896Z,91.20
2018-05-18T04:29:05.530Z,90.90
2018-05-18T04:31:33.128Z,91.00
2018-05-18T04:34:00.690Z,90.90
2018-05-18T04:36:28.205Z,90.90
2018-05-18T04:38:55.737Z,90.70
2018-05-18T04:41:23.250Z,90.90
2018-05-18T04:43:50.772Z,90.50
2018-05-18T04:46:18.313Z,91.00
2018-05-18T04:48:45.825Z,90.70
2018-05-18T04:51:13.459Z,90.60
2018-05-18T04:53:41.025Z,90.70
2018-05-18T04:56:08.545Z,90.50
2018-05-18T04:58:36.841Z,90.50
2018-05-18T05:01:04.421Z,90.50
2018-05-18T05:03:31.944Z,90.50
2018-05-18T05:06:00.257Z,90.40
2018-05-18T05:08:27.866Z,90.40
2018-05-18T05:10:55.391Z,90.00
2018-05-18T05:13:23.794Z,89.90
2018-05-18T05:15:51.328Z,89.90
2018-05-18T05:18:19.617Z,89.90
2018-05-18T05:20:47.135Z,89.90
2018-05-18T05:23:14.682Z,89.60
2018-05-18T05:25:42.213Z,90.00
2018-05-18T05:28:09.738Z,89.50
2018-05-18T05:30:38.210Z,89.50
2018-05-18T05:33:05.733Z,89.40
2018-05-18T05:35:33.253Z,89.50
2018-05-18T05:38:02.301Z,89.60
2018-05-18T05:40:29.829Z,89.60
2018-05-18T05:42:58.109Z,89.80
2018-05-18T05:45:26.419Z,89.40
2018-05-18T05:47:53.962Z,89.30
2018-05-18T05:50:22.254Z,90.20
2018-05-18T05:52:50.601Z,90.40
2018-05-18T05:55:18.101Z,90.40
2018-05-18T05:57:45.627Z,90.00
2018-05-18T06:00:13.238Z,90.30
2018-05-18T06:02:40.785Z,90.60
2018-05-18T06:05:09.059Z,90.00
2018-05-18T06:07:37.378Z,89.40
2018-05-18T06:10:04.933Z,89.30
2018-05-18T06:12:32.452Z,89.50
2018-05-18T06:14:59.991Z,90.00
2018-05-18T06:17:27.514Z,90.10
2018-05-18T06:19:55.132Z,90.00
2018-05-18T06:22:22.688Z,89.80
2018-05-18T06:24:50.224Z,89.40
2018-05-18T06:27:17.782Z,88.10
2018-05-18T06:29:45.338Z,88.50
2018-05-18T06:32:12.927Z,88.90
2018-05-18T06:34:40.568Z,88.70
2018-05-18T06:37:08.041Z,87.50
2018-05-18T06:39:35.564Z,86.90
2018-05-18T06:42:04.593Z,87.00
2018-05-18T06:44:32.129Z,86.90
2018-05-18T06:46:59.658Z,86.80
2018-05-18T06:49:27.181Z,87.40
2018-05-18T06:51:55.546Z,86.00
2018-05-18T06:54:23.053Z,85.90
2018-05-18T06:56:50.611Z,83.40
2018-05-18T06:59:18.145Z,79.00
2018-05-18T07:01:46.436Z,75.90
2018-05-18T07:04:14.773Z,72.90
2018-05-18T07:06:42.333Z,72.90
2018-05-18T07:09:09.853Z,68.50
2018-05-18T07:11:37.370Z,68.10
2018-05-18T07:14:04.907Z,64.70
2018-05-18T07:16:32.478Z,59.10
2018-05-18T07:19:00.074Z,58.40
2018-05-18T07:21:27.602Z,56.90
2018-05-18T07:23:55.123Z,56.20
2018-05-18T07:26:22.678Z,53.40
2018-05-18T07:28:50.997Z,49.00
2018-05-18T07:31:18.514Z,48.90
2018-05-18T07:33:46.095Z,44.80
2018-05-18T07:36:14.449Z,46.80
2018-05-18T07:38:41.933Z,46.50
2018-05-18T07:41:10.209Z,46.20
2018-05-18T07:43:38.537Z,42.90
2018-05-18T07:46:06.078Z,42.70
2018-05-18T07:48:34.365Z,41.00
2018-05-18T07:51:02.670Z,40.10
2018-05-18T07:53:30.269Z,40.00
2018-05-18T07:55:57.761Z,42.80
2018-05-18T07:58:26.077Z,44.70
2018-05-18T08:00:53.594Z,44.60
2018-05-18T08:03:21.870Z,39.30
2018-05-18T08:05:49.433Z,39.30
2018-05-18T08:08:18.457Z,40.20
2018-05-18T08:10:46.752Z,39.90
2018-05-18T08:13:14.312Z,39.80
2018-05-18T08:15:42.587Z,39.30
2018-05-18T08:18:10.886Z,37.10
2018-05-18T08:20:38.408Z,37.10
2018-05-18T08:23:05.925Z,38.20
2018-05-18T08:25:33.437Z,35.50
2018-05-18T08:28:01.735Z,36.70
2018-05-18T08:30:41.841Z,33.90
2018-05-18T08:33:09.385Z,33.90
2018-05-18T08:35:36.960Z,34.10
2018-05-18T08:38:04.500Z,33.70
2018-05-18T08:40:32.058Z,33.90
2018-05-18T08:42:59.642Z,31.30
2018-05-18T08:45:27.166Z,31.90
2018-05-18T08:47:56.216Z,30.80
2018-05-18T08:50:23.735Z,30.70
2018-05-18T08:52:52.047Z,29.60
2018-05-18T08:55:19.577Z,29.50
2018-05-18T08:57:47.293Z,28.60
2018-05-18T09:00:14.798Z,27.30
2018-05-18T09:02:43.190Z,28.40
2018-05-18T09:05:11.490Z,30.00
2018-05-18T09:07:39.870Z,28.60
2018-05-18T09:10:08.190Z,29.00
2018-05-18T09:12:35.712Z,28.90
2018-05-18T09:15:03.228Z,28.20
2018-05-18T09:17:30.762Z,29.10
2018-05-18T09:19:58.273Z,28.60
2018-05-18T09:22:25.797Z,27.70
2018-05-18T09:24:53.333Z,26.20
2018-05-18T09:27:21.638Z,28.60
2018-05-18T09:29:49.157Z,28.60
2018-05-18T09:32:17.477Z,26.50
2018-05-18T09:34:45.003Z,26.50
2018-05-18T09:37:14.099Z,25.60
2018-05-18T09:39:43.217Z,25.80
2018-05-18T09:42:10.676Z,25.80
2018-05-18T09:44:38.980Z,26.20
2018-05-18T09:47:07.370Z,25.30
2018-05-18T09:49:34.889Z,25.30
2018-05-18T09:52:02.424Z,25.60
2018-05-18T09:54:30.086Z,25.30
2018-05-18T09:56:57.492Z,24.60
2018-05-18T09:59:25.011Z,25.80
2018-05-18T10:01:52.561Z,24.80
2018-05-18T10:04:20.099Z,25.30
2018-05-18T10:06:48.394Z,24.30
2018-05-18T10:09:16.686Z,23.80
2018-05-18T10:11:44.257Z,23.70
2018-05-18T10:14:11.793Z,24.20
2018-05-18T10:16:40.109Z,23.20
2018-05-18T10:19:07.634Z,23.10
2018-05-18T10:21:35.948Z,22.80
2018-05-18T10:24:03.482Z,22.80
2018-05-18T10:26:31.769Z,22.50
2018-05-18T10:29:00.058Z,24.30
2018-05-18T10:31:27.629Z,24.20
2018-05-18T10:33:55.150Z,24.80
2018-05-18T10:36:24.183Z,22.40
2018-05-18T10:38:52.662Z,23.40
2018-05-18T10:41:20.946Z,24.40
2018-05-18T10:43:49.217Z,22.20
2018-05-18T10:46:17.527Z,22.70
2018-05-18T10:48:45.050Z,22.70
2018-05-18T10:51:12.645Z,20.50
2018-05-18T10:53:40.226Z,22.20
2018-05-18T10:56:07.753Z,21.80
2018-05-18T10:58:36.119Z,21.40
2018-05-18T11:01:03.585Z,21.30
2018-05-18T11:03:32.011Z,22.80
2018-05-18T11:05:59.453Z,22.70
2018-05-18T11:08:27.748Z,21.20
2018-05-18T11:10:56.037Z,22.10
2018-05-18T11:13:23.557Z,22.00
2018-05-18T11:15:51.097Z,20.60
2018-05-18T11:18:18.611Z,20.90
2018-05-18T11:20:46.888Z,20.40
2018-05-18T11:23:15.202Z,20.80
2018-05-18T11:25:42.709Z,20.80
2018-05-18T11:28:10.318Z,21.10
2018-05-18T11:30:37.854Z,21.90
2018-05-18T11:33:05.554Z,23.70
2018-05-18T11:35:33.025Z,22.60
2018-05-18T11:38:00.578Z,22.20
2018-05-18T11:40:28.245Z,20.60
2018-05-18T11:42:55.766Z,21.50
2018-05-18T11:45:23.297Z,20.60
2018-05-18T11:47:50.856Z,20.50
2018-05-18T11:50:18.386Z,20.70
2018-05-18T11:52:46.694Z,21.00
2018-05-18T11:55:14.248Z,20.90
2018-05-18T11:57:41.777Z,20.60
2018-05-18T12:00:10.836Z,20.00
2018-05-18T12:02:38.359Z,20.00
2018-05-18T12:05:06.642Z,20.30
2018-05-18T12:07:34.939Z,20.50
2018-05-18T12:10:02.467Z,20.40
2018-05-18T12:12:29.974Z,19.90
2018-05-18T12:14:57.506Z,19.10
2018-05-18T12:17:25.018Z,19.10
2018-05-18T12:19:52.573Z,20.70
2018-05-18T12:22:20.134Z,19.90
2018-05-18T12:24:47.641Z,20.10
2018-05-18T12:27:15.159Z,20.20
2018-05-18T12:29:42.706Z,19.40
2018-05-18T12:32:10.990Z,19.60
2018-05-18T12:34:39.305Z,18.90
2018-05-18T12:37:06.847Z,18.90
2018-05-18T12:39:34.365Z,18.90
2018-05-18T12:42:02.769Z,21.30
2018-05-18T12:44:30.316Z,21.30
2018-05-18T12:46:58.596Z,20.20
2018-05-18T12:49:26.222Z,20.20
2018-05-18T12:51:53.766Z,22.60
2018-05-18T12:54:21.273Z,22.80
2018-05-18T12:56:48.794Z,24.50
2018-05-18T12:59:16.368Z,25.30
2018-05-18T13:01:43.882Z,28.50
2018-05-18T13:04:12.913Z,29.70
2018-05-18T13:06:41.221Z,28.10
2018-05-18T13:09:08.854Z,28.00
2018-05-18T13:11:36.306Z,29.60
2018-05-18T13:14:04.613Z,30.10
2018-05-18T13:16:32.911Z,33.60
2018-05-18T13:19:00.437Z,33.60
2018-05-18T13:23:57.621Z,34.10
2018-05-18T13:26:25.912Z,37.10
2018-05-18T13:28:54.221Z,35.20
2018-05-18T13:31:21.877Z,35.20
2018-05-18T13:33:49.381Z,33.40
2018-05-18T13:36:16.926Z,36.00
2018-05-18T13:38:44.518Z,35.30
2018-05-18T13:41:11.979Z,35.20
2018-05-18T13:43:39.646Z,35.70
2018-05-18T13:46:07.163Z,37.60
2018-05-18T13:48:34.674Z,36.40
2018-05-18T13:51:02.220Z,35.40
2018-05-18T13:53:29.741Z,36.40
2018-05-18T13:55:57.271Z,35.90
2018-05-18T13:58:25.628Z,39.20
2018-05-18T14:00:53.142Z,36.00
2018-05-18T14:03:21.425Z,36.50
2018-05-18T14:05:49.739Z,38.60
2018-05-18T14:08:17.249Z,38.50
2018-05-18T14:10:44.854Z,38.00
2018-05-18T14:13:12.381Z,38.90
2018-05-18T14:15:39.984Z,38.40
2018-05-18T14:18:07.524Z,38.50
2018-05-18T14:20:35.838Z,38.20
2018-05-18T14:23:03.369Z,38.10
2018-05-18T14:25:31.649Z,38.80
2018-05-18T14:27:59.977Z,40.70
2018-05-18T14:30:27.498Z,40.70
2018-05-18T14:32:55.786Z,40.80
2018-05-18T14:35:24.110Z,41.10
2018-05-18T14:37:51.694Z,41.10
2018-05-18T14:40:19.150Z,40.90
2018-05-18T14:42:46.693Z,41.00
2018-05-18T14:45:14.359Z,40.70
2018-05-18T14:47:41.913Z,39.60
2018-05-18T14:50:09.450Z,37.70
2018-05-18T14:52:37.722Z,40.80
2018-05-18T14:55:06.043Z,39.40
2018-05-18T14:57:33.593Z,39.40
2018-05-18T15:00:01.153Z,39.70
2018-05-18T15:02:28.685Z,41.60
2018-05-18T15:04:56.230Z,41.50
2018-05-18T15:07:23.748Z,42.70
2018-05-18T15:12:28.125Z,42.50
2018-05-18T15:14:55.630Z,41.80
2018-05-18T15:17:23.140Z,42.40
2018-05-18T15:19:50.677Z,43.20
2018-05-18T15:22:19.073Z,42.70
2018-05-18T15:24:46.610Z,42.60
2018-05-18T15:27:14.923Z,42.70
2018-05-18T15:29:42.493Z,42.40
2018-05-18T15:32:10.009Z,42.20
2018-05-18T15:34:37.550Z,40.60
2018-05-18T15:37:05.057Z,40.40
2018-05-18T15:39:33.364Z,40.90
2018-05-18T15:42:00.925Z,40.80
2018-05-18T15:44:28.462Z,42.30
2018-05-18T15:46:56.792Z,42.30
2018-05-18T15:49:24.370Z,42.20
2018-05-18T15:51:51.881Z,40.40
2018-05-18T15:54:20.213Z,40.80
2018-05-18T15:56:47.761Z,40.70
2018-05-18T15:59:15.273Z,41.80
2018-05-18T16:01:42.799Z,41.90
2018-05-18T16:04:10.342Z,41.00
2018-05-18T16:06:37.909Z,42.10
2018-05-18T16:09:05.422Z,43.40
2018-05-18T16:11:32.993Z,42.10
2018-05-18T16:14:00.538Z,42.60
2018-05-18T16:16:28.064Z,41.20
2018-05-18T16:18:55.629Z,42.70
2018-05-18T16:21:23.143Z,41.30
2018-05-18T16:23:51.484Z,42.30
2018-05-18T16:26:19.025Z,42.30
2018-05-18T16:28:46.557Z,42.40
2018-05-18T16:31:14.079Z,41.70
2018-05-18T16:33:41.615Z,42.90
2018-05-18T16:36:09.881Z,43.20
2018-05-18T16:38:38.162Z,42.50
2018-05-18T16:41:06.469Z,42.20
2018-05-18T16:43:33.989Z,42.20
2018-05-18T16:46:01.521Z,43.20
2018-05-18T16:48:29.095Z,43.20
2018-05-18T16:50:56.603Z,43.20
2018-05-18T16:53:24.881Z,44.30
2018-05-18T16:55:53.177Z,44.00
2018-05-18T16:58:21.454Z,44.30
2018-05-18T17:00:49.732Z,45.50
2018-05-18T17:03:18.051Z,44.80
2018-05-18T17:05:45.561Z,44.80
2018-05-18T17:08:13.838Z,45.50
2018-05-18T17:10:42.145Z,45.00
2018-05-18T17:13:10.425Z,45.90
2018-05-18T17:15:38.705Z,45.70
2018-05-18T17:18:07.016Z,46.00
2018-05-18T17:20:36.662Z,45.90
2018-05-18T17:23:04.187Z,47.00
2018-05-18T17:25:32.288Z,46.70
2018-05-18T17:27:59.858Z,47.00
2018-05-18T17:30:27.532Z,46.60
2018-05-18T17:32:57.488Z,47.60
2018-05-18T17:35:26.308Z,47.40
2018-05-18T17:37:53.921Z,47.40
2018-05-18T17:40:22.358Z,47.50
2018-05-18T17:42:49.914Z,47.40
2018-05-18T17:45:19.553Z,47.30
2018-05-18T17:47:47.105Z,47.20
2018-05-18T17:50:14.777Z,47.40
2018-05-18T17:52:42.290Z,48.70
2018-05-18T17:55:09.826Z,47.40
2018-05-18T17:57:37.341Z,48.20
2018-05-18T18:00:05.630Z,48.90
2018-05-18T18:02:33.174Z,48.90
2018-05-18T18:05:01.463Z,49.10
2018-05-18T18:07:29.758Z,48.70
2018-05-18T18:09:57.328Z,48.60
2018-05-18T18:12:24.846Z,49.40
2018-05-18T18:14:54.037Z,49.70
2018-05-18T18:17:21.565Z,49.70
2018-05-18T18:19:49.096Z,48.80
2018-05-18T18:22:17.391Z,49.70
2018-05-18T18:24:45.706Z,49.40
2018-05-18T18:27:13.217Z,49.30
2018-05-18T18:29:40.733Z,48.70
2018-05-18T18:32:08.269Z,50.00
2018-05-18T18:34:35.795Z,50.00
2018-05-18T18:37:04.089Z,49.90
2018-05-18T18:39:31.647Z,50.00
2018-05-18T18:41:59.925Z,50.20
2018-05-18T18:44:28.943Z,49.50
2018-05-18T18:46:57.265Z,50.40
2018-05-18T18:49:24.779Z,50.30
2018-05-18T18:51:52.426Z,49.70
2018-05-18T18:54:19.966Z,50.30
2018-05-18T18:56:47.478Z,50.20
2018-05-18T18:59:15.811Z,50.00
2018-05-18T19:01:43.362Z,50.00
2018-05-18T19:04:10.886Z,50.80
2018-05-18T19:06:39.187Z,51.80
2018-05-18T19:09:06.721Z,51.80
2018-05-18T19:11:34.291Z,52.00
2018-05-18T19:14:02.626Z,52.50
2018-05-18T19:16:30.180Z,52.30
2018-05-18T19:18:57.687Z,52.60
2018-05-18T19:21:25.198Z,52.40
2018-05-18T19:23:52.754Z,53.70
2018-05-18T19:26:21.031Z,53.80
2018-05-18T19:28:49.318Z,54.00
2018-05-18T19:31:17.705Z,54.50
2018-05-18T19:33:45.220Z,54.40
2018-05-18T19:36:12.740Z,54.20
2018-05-18T19:38:40.271Z,54.30
2018-05-18T19:41:07.785Z,54.60
2018-05-18T19:43:35.295Z,55.00
2018-05-18T19:46:03.731Z,55.80
2018-05-18T19:48:31.251Z,55.50
2018-05-18T19:50:59.538Z,55.00
2018-05-18T19:53:27.944Z,55.90
2018-05-18T19:55:55.462Z,55.80
2018-05-18T19:58:22.994Z,56.50
2018-05-18T20:00:50.541Z,56.20
2018-05-18T20:03:18.053Z,57.00
2018-05-18T20:05:45.569Z,56.90
2018-05-18T20:08:13.113Z,56.50
2018-05-18T20:10:41.393Z,57.00
2018-05-18T20:13:09.672Z,57.00
2018-05-18T20:15:37.982Z,56.70
2018-05-18T20:18:05.499Z,56.70
2018-05-18T20:20:33.006Z,57.50
2018-05-18T20:23:00.539Z,57.10
2018-05-18T20:25:28.813Z,57.20
2018-05-18T20:27:57.107Z,56.50
2018-05-18T20:30:25.413Z,56.80
2018-05-18T20:32:52.925Z,56.70
2018-05-18T20:35:20.430Z,56.60
2018-05-18T20:37:47.986Z,57.00
2018-05-18T20:40:15.508Z,57.10
2018-05-18T20:42:43.040Z,56.80
2018-05-18T20:45:10.630Z,56.60
2018-05-18T20:47:38.117Z,57.30
2018-05-18T20:50:06.398Z,57.50
2018-05-18T20:52:35.494Z,57.90
2018-05-18T20:55:03.261Z,57.90
2018-05-18T20:57:32.283Z,57.60
2018-05-18T21:00:00.602Z,58.20
2018-05-18T21:02:28.116Z,58.00
2018-05-18T21:04:56.397Z,59.10
2018-05-18T21:07:24.706Z,58.90
2018-05-18T21:09:52.213Z,58.20
2018-05-18T21:12:19.732Z,58.30
2018-05-18T21:14:47.292Z,58.40
2018-05-18T21:17:15.573Z,59.30
2018-05-18T21:19:43.851Z,59.20
2018-05-18T21:22:11.563Z,59.20
2018-05-18T21:24:39.120Z,59.50
2018-05-18T21:27:06.640Z,59.40
2018-05-18T21:29:36.001Z,60.10
2018-05-18T21:32:03.561Z,60.00
2018-05-18T21:34:31.157Z,60.40
2018-05-18T21:36:58.784Z,60.60
2018-05-18T21:39:26.311Z,60.50
2018-05-18T21:41:53.909Z,61.20
2018-05-18T21:44:21.474Z,61.30
2018-05-18T21:46:49.051Z,61.00
2018-05-18T21:49:16.607Z,61.30
2018-05-18T21:51:44.213Z,61.50
2018-05-18T21:54:11.719Z,61.30
2018-05-18T21:56:39.422Z,61.70
2018-05-18T21:59:07.079Z,61.50
2018-05-18T22:01:34.647Z,62.10
2018-05-18T22:04:02.158Z,62.00
2018-05-18T22:06:30.557Z,62.10
2018-05-18T22:08:58.031Z,61.90
2018-05-18T22:14:07.404Z,62.40
2018-05-18T22:16:35.649Z,63.30
2018-05-18T22:19:03.953Z,63.50
2018-05-18T22:21:31.518Z,63.30
2018-05-18T22:23:59.054Z,63.20
2018-05-18T22:26:26.633Z,63.30
2018-05-18T22:28:54.208Z,63.60
2018-05-18T22:31:21.758Z,63.80
2018-05-18T22:33:50.034Z,64.50
2018-05-18T22:36:18.349Z,64.30
2018-05-18T22:38:45.858Z,64.20
2018-05-18T22:41:13.373Z,64.70
2018-05-18T22:43:40.912Z,64.80
2018-05-18T22:46:09.190Z,65.10
2018-05-18T22:48:37.470Z,65.30
2018-05-18T22:51:05.774Z,65.50
2018-05-18T22:53:33.325Z,65.40
2018-05-18T22:56:01.654Z,65.40
2018-05-18T22:58:29.445Z,65.30
2018-05-18T23:00:56.961Z,65.10
2018-05-18T23:03:24.484Z,65.60
2018-05-18T23:05:52.794Z,65.60
2018-05-18T23:08:20.298Z,65.50
2018-05-18T23:10:47.828Z,65.70
2018-05-18T23:13:15.364Z,66.30
2018-05-18T23:15:43.643Z,65.70
2018-05-18T23:18:11.921Z,65.90
2018-05-18T23:20:39.450Z,65.70
2018-05-18T23:23:07.014Z,66.50
2018-05-18T23:25:34.537Z,65.90
2018-05-18T23:28:02.074Z,66.40
2018-05-18T23:30:30.366Z,66.80
2018-05-18T23:32:58.649Z,66.40
2018-05-18T23:35:26.970Z,67.50
2018-05-18T23:37:54.477Z,67.40
2018-05-18T23:40:22.762Z,67.00
2018-05-18T23:42:51.062Z,68.10
2018-05-18T23:45:20.572Z,67.70
2018-05-18T23:47:48.160Z,67.70
2018-05-18T23:50:15.681Z,67.80
2018-05-18T23:52:43.277Z,67.70
2018-05-18T23:55:10.835Z,68.00
2018-05-18T23:57:39.126Z,68.00
